createdAt,value
2023-05-01T00:00:32.764Z,39.57
2023-05-01T00:01:32.859Z,39.58
2023-05-01T00:02:32.973Z,39.58
2023-05-01T00:03:33.064Z,39.59
2023-05-01T00:04:33.067Z,39.60
2023-05-01T00:05:33.073Z,39.60
2023-05-01T00:06:33.219Z,39.58
2023-05-01T00:07:33.333Z,39.59
2023-05-01T00:08:34.257Z,39.59
2023-05-01T00:09:33.378Z,39.57
2023-05-01T00:10:33.379Z,39.57
2023-05-01T00:11:33.419Z,39.63
2023-05-01T00:12:33.473Z,39.62
2023-05-01T00:13:33.505Z,39.62
2023-05-01T00:14:33.547Z,39.62
2023-05-01T00:15:33.586Z,39.60
2023-05-01T00:16:33.758Z,39.62
2023-05-01T00:17:33.726Z,39.57
2023-05-01T00:18:33.806Z,39.64
2023-05-01T00:19:33.876Z,39.70
2023-05-01T00:20:33.950Z,39.70
2023-05-01T00:21:33.966Z,39.82
2023-05-01T00:22:34.006Z,39.87
2023-05-01T00:23:34.068Z,39.86
2023-05-01T00:24:34.135Z,39.87
2023-05-01T00:25:34.160Z,39.88
2023-05-01T00:26:34.219Z,39.89
2023-05-01T00:27:34.256Z,39.86
2023-05-01T00:28:34.277Z,39.87
2023-05-01T00:29:34.303Z,39.87
2023-05-01T00:30:34.263Z,39.87
2023-05-01T00:31:34.325Z,39.90
2023-05-01T00:32:34.331Z,39.95
2023-05-01T00:33:34.347Z,39.98
2023-05-01T00:34:34.328Z,40.00
2023-05-01T00:35:34.341Z,39.99
2023-05-01T00:36:34.326Z,39.98
2023-05-01T00:37:34.377Z,39.97
2023-05-01T00:38:34.384Z,39.92
2023-05-01T00:39:34.437Z,39.97
2023-05-01T00:40:34.398Z,39.98
2023-05-01T00:41:34.420Z,39.99
2023-05-01T00:42:34.405Z,40.04
2023-05-01T00:43:34.385Z,40.04
2023-05-01T00:44:34.368Z,40.07
2023-05-01T00:45:34.461Z,40.05
2023-05-01T00:46:34.520Z,40.04
2023-05-01T00:47:34.407Z,40.10
2023-05-01T00:48:34.412Z,40.09
2023-05-01T00:49:34.408Z,40.09
2023-05-01T00:50:34.400Z,40.12
2023-05-01T00:51:34.408Z,40.17
2023-05-01T00:52:34.383Z,40.18
2023-05-01T00:53:34.381Z,40.24
2023-05-01T00:54:34.385Z,40.26
2023-05-01T00:55:34.396Z,40.22
2023-05-01T00:56:34.409Z,40.20
2023-05-01T00:57:34.363Z,40.14
2023-05-01T00:58:34.376Z,40.15
2023-05-01T00:59:34.358Z,40.16
2023-05-01T01:00:34.361Z,40.12
2023-05-01T01:01:34.410Z,40.11
2023-05-01T01:02:34.443Z,40.10
2023-05-01T01:03:34.403Z,40.14
2023-05-01T01:04:34.534Z,40.24
2023-05-01T01:05:34.394Z,40.31
2023-05-01T01:06:34.472Z,40.31
2023-05-01T01:07:34.424Z,40.38
2023-05-01T01:08:34.451Z,40.37
2023-05-01T01:09:34.437Z,40.36
2023-05-01T01:10:34.439Z,40.37
2023-05-01T01:11:34.457Z,40.40
2023-05-01T01:12:34.439Z,40.34
2023-05-01T01:13:34.466Z,40.28
2023-05-01T01:14:34.474Z,40.25
2023-05-01T01:15:34.493Z,40.27
2023-05-01T01:16:34.536Z,40.32
2023-05-01T01:17:34.550Z,40.41
2023-05-01T01:18:34.496Z,40.46
2023-05-01T01:19:34.502Z,40.44
2023-05-01T01:20:34.522Z,40.44
2023-05-01T01:21:34.529Z,40.46
2023-05-01T01:22:34.540Z,40.51
2023-05-01T01:23:34.542Z,40.56
2023-05-01T01:24:34.551Z,40.58
2023-05-01T01:25:34.551Z,40.59
2023-05-01T01:26:34.555Z,40.62
2023-05-01T01:27:34.536Z,40.62
2023-05-01T01:28:34.567Z,40.66
2023-05-01T01:29:34.558Z,40.65
2023-05-01T01:30:34.557Z,40.62
2023-05-01T01:31:34.665Z,40.59
2023-05-01T01:32:34.579Z,40.54
2023-05-01T01:33:34.552Z,40.56
2023-05-01T01:34:34.560Z,40.57
2023-05-01T01:35:34.552Z,40.55
2023-05-01T01:36:34.574Z,40.52
2023-05-01T01:37:34.587Z,40.53
2023-05-01T01:38:34.600Z,40.58
2023-05-01T01:39:34.582Z,40.63
2023-05-01T01:40:34.607Z,40.62
2023-05-01T01:41:34.618Z,40.64
2023-05-01T01:42:34.619Z,40.62
2023-05-01T01:43:34.587Z,40.60
2023-05-01T01:44:34.633Z,40.65
2023-05-01T01:45:34.606Z,40.67
2023-05-01T01:46:34.633Z,40.66
2023-05-01T01:47:34.672Z,40.68
2023-05-01T01:48:34.605Z,40.78
2023-05-01T01:49:34.572Z,40.82
2023-05-01T01:50:34.594Z,40.81
2023-05-01T01:51:34.585Z,40.82
2023-05-01T01:52:34.586Z,40.83
2023-05-01T01:53:34.580Z,40.86
2023-05-01T01:54:34.579Z,40.89
2023-05-01T01:55:34.567Z,40.98
2023-05-01T01:56:34.598Z,40.97
2023-05-01T01:57:34.558Z,40.99
2023-05-01T01:58:34.824Z,41.01
2023-05-01T01:59:34.624Z,41.02
2023-05-01T02:00:34.573Z,41.06
2023-05-01T02:01:34.600Z,41.00
2023-05-01T02:02:34.709Z,40.96
2023-05-01T02:03:34.860Z,40.98
2023-05-01T02:04:34.636Z,40.89
2023-05-01T02:05:34.653Z,40.81
2023-05-01T02:06:34.694Z,40.75
2023-05-01T02:07:34.694Z,40.75
2023-05-01T02:08:34.709Z,40.77
2023-05-01T02:09:34.716Z,40.84
2023-05-01T02:10:34.705Z,40.95
2023-05-01T02:11:34.732Z,40.96
2023-05-01T02:12:34.750Z,40.96
2023-05-01T02:13:34.811Z,40.94
2023-05-01T02:14:34.782Z,40.90
2023-05-01T02:15:34.836Z,40.85
2023-05-01T02:16:35.017Z,40.83
2023-05-01T02:17:34.851Z,40.82
2023-05-01T02:18:34.950Z,40.81
2023-05-01T02:19:34.898Z,40.84
2023-05-01T02:20:34.888Z,40.77
2023-05-01T02:21:34.924Z,40.72
2023-05-01T02:22:34.919Z,40.75
2023-05-01T02:23:34.971Z,40.76
2023-05-01T02:24:34.950Z,40.88
2023-05-01T02:25:35.025Z,40.99
2023-05-01T02:26:35.038Z,41.03
2023-05-01T02:27:35.046Z,41.01
2023-05-01T02:28:35.040Z,40.99
2023-05-01T02:29:35.072Z,41.02
2023-05-01T02:30:35.098Z,41.00
2023-05-01T02:31:35.175Z,41.06
2023-05-01T02:32:35.217Z,41.11
2023-05-01T02:33:35.187Z,41.19
2023-05-01T02:34:35.177Z,41.21
2023-05-01T02:35:35.239Z,41.19
2023-05-01T02:36:35.265Z,41.13
2023-05-01T02:37:35.309Z,41.17
2023-05-01T02:38:35.332Z,41.19
2023-05-01T02:39:35.348Z,41.21
2023-05-01T02:40:35.354Z,41.20
2023-05-01T02:41:35.412Z,41.20
2023-05-01T02:42:35.471Z,41.20
2023-05-01T02:43:35.465Z,41.13
2023-05-01T02:44:35.496Z,41.13
2023-05-01T02:45:35.614Z,41.16
2023-05-01T02:46:35.630Z,41.17
2023-05-01T02:47:35.696Z,41.22
2023-05-01T02:48:35.619Z,41.28
2023-05-01T02:49:35.636Z,41.27
2023-05-01T02:50:35.641Z,41.35
2023-05-01T02:51:35.728Z,41.32
2023-05-01T02:52:35.711Z,41.36
2023-05-01T02:53:35.732Z,41.35
2023-05-01T02:54:35.762Z,41.39
2023-05-01T02:55:35.795Z,41.43
2023-05-01T02:56:35.802Z,41.47
2023-05-01T02:57:35.842Z,41.42
2023-05-01T02:58:35.869Z,41.48
2023-05-01T02:59:35.920Z,41.52
2023-05-01T03:00:36.668Z,41.54
2023-05-01T03:01:35.981Z,41.57
2023-05-01T03:02:36.035Z,41.46
2023-05-01T03:03:35.992Z,41.42
2023-05-01T03:04:36.065Z,41.40
2023-05-01T03:05:36.013Z,41.36
2023-05-01T03:06:36.059Z,41.34
2023-05-01T03:07:36.071Z,41.30
2023-05-01T03:08:36.076Z,41.25
2023-05-01T03:09:36.098Z,41.23
2023-05-01T03:10:36.146Z,41.26
2023-05-01T03:11:36.163Z,41.22
2023-05-01T03:12:36.166Z,41.28
2023-05-01T03:13:36.194Z,41.31
2023-05-01T03:14:36.219Z,41.34
2023-05-01T03:15:36.238Z,41.32
2023-05-01T03:16:36.309Z,41.28
2023-05-01T03:17:36.268Z,41.23
2023-05-01T03:18:36.335Z,41.23
2023-05-01T03:19:36.377Z,41.23
2023-05-01T03:20:36.447Z,41.20
2023-05-01T03:21:36.523Z,41.22
2023-05-01T03:22:36.553Z,41.24
2023-05-01T03:23:36.635Z,41.27
2023-05-01T03:24:36.655Z,41.26
2023-05-01T03:25:36.733Z,41.27
2023-05-01T03:26:36.818Z,41.31
2023-05-01T03:27:36.940Z,41.32
2023-05-01T03:28:36.937Z,41.27
2023-05-01T03:29:36.995Z,41.28
2023-05-01T03:30:37.018Z,41.29
2023-05-01T03:31:37.211Z,41.23
2023-05-01T03:32:37.208Z,41.21
2023-05-01T03:33:37.245Z,41.23
2023-05-01T03:34:37.280Z,41.23
2023-05-01T03:35:37.420Z,41.27
2023-05-01T03:36:37.416Z,41.32
2023-05-01T03:37:37.486Z,41.29
2023-05-01T03:38:37.548Z,41.27
2023-05-01T03:39:37.554Z,41.26
2023-05-01T03:40:37.638Z,41.27
2023-05-01T03:41:37.720Z,41.34
2023-05-01T03:42:37.786Z,41.32
2023-05-01T03:43:37.860Z,41.32
2023-05-01T03:44:37.885Z,41.39
2023-05-01T03:45:37.959Z,41.40
2023-05-01T03:46:38.020Z,41.41
2023-05-01T03:47:38.053Z,41.39
2023-05-01T03:48:38.147Z,41.37
2023-05-01T03:49:38.223Z,41.37
2023-05-01T03:50:38.272Z,41.41
2023-05-01T03:51:38.340Z,41.41
2023-05-01T03:52:38.369Z,41.42
2023-05-01T03:53:38.429Z,41.44
2023-05-01T03:54:38.519Z,41.48
2023-05-01T03:55:38.600Z,41.45
2023-05-01T03:56:38.579Z,41.45
2023-05-01T03:57:38.653Z,41.47
2023-05-01T03:58:38.714Z,41.50
2023-05-01T03:59:38.771Z,41.58
2023-05-01T04:00:38.806Z,41.69
2023-05-01T04:01:38.946Z,41.72
2023-05-01T04:02:39.002Z,41.70
2023-05-01T04:03:39.103Z,41.71
2023-05-01T04:04:39.076Z,41.68
2023-05-01T04:05:39.065Z,41.72
2023-05-01T04:06:39.262Z,41.81
2023-05-01T04:07:39.174Z,41.84
2023-05-01T04:08:39.239Z,41.90
2023-05-01T04:09:39.306Z,41.97
2023-05-01T04:10:39.367Z,42.05
2023-05-01T04:11:39.433Z,42.11
2023-05-01T04:12:39.475Z,42.15
2023-05-01T04:13:39.562Z,42.13
2023-05-01T04:14:39.622Z,42.09
2023-05-01T04:15:39.643Z,42.02
2023-05-01T04:16:39.729Z,41.91
2023-05-01T04:17:39.783Z,41.95
2023-05-01T04:18:39.763Z,41.95
2023-05-01T04:19:39.821Z,41.91
2023-05-01T04:20:39.889Z,41.89
2023-05-01T04:21:39.965Z,41.82
2023-05-01T04:22:40.016Z,41.80
2023-05-01T04:23:40.082Z,41.73
2023-05-01T04:24:40.179Z,41.71
2023-05-01T04:25:40.209Z,41.72
2023-05-01T04:26:40.390Z,41.71
2023-05-01T04:27:40.354Z,41.73
2023-05-01T04:28:40.413Z,41.75
2023-05-01T04:29:40.476Z,41.80
2023-05-01T04:30:40.513Z,41.78
2023-05-01T04:31:40.588Z,41.79
2023-05-01T04:32:40.642Z,41.77
2023-05-01T04:33:40.708Z,41.87
2023-05-01T04:34:40.746Z,41.94
2023-05-01T04:35:40.804Z,41.98
2023-05-01T04:36:40.862Z,41.96
2023-05-01T04:37:40.909Z,41.91
2023-05-01T04:38:40.975Z,41.92
2023-05-01T04:39:41.054Z,41.93
2023-05-01T04:40:41.099Z,41.99
2023-05-01T04:41:41.149Z,42.00
2023-05-01T04:42:41.242Z,42.04
2023-05-01T04:43:41.270Z,42.11
2023-05-01T04:44:41.346Z,42.14
2023-05-01T04:45:41.385Z,42.23
2023-05-01T04:46:41.441Z,42.20
2023-05-01T04:47:41.527Z,42.19
2023-05-01T04:48:41.553Z,42.16
2023-05-01T04:49:41.618Z,42.15
2023-05-01T04:50:41.674Z,42.15
2023-05-01T04:51:41.776Z,42.13
2023-05-01T04:52:41.809Z,42.16
2023-05-01T04:53:41.894Z,42.19
2023-05-01T04:54:41.919Z,42.27
2023-05-01T04:55:41.979Z,42.23
2023-05-01T04:56:42.018Z,42.22
2023-05-01T04:57:42.064Z,42.19
2023-05-01T04:58:42.088Z,42.11
2023-05-01T04:59:42.125Z,42.05
2023-05-01T05:00:42.179Z,42.04
2023-05-01T05:01:42.270Z,42.06
2023-05-01T05:02:42.314Z,42.04
2023-05-01T05:03:42.483Z,42.07
2023-05-01T05:04:42.359Z,42.09
2023-05-01T05:05:42.433Z,42.06
2023-05-01T05:06:42.561Z,42.08
2023-05-01T05:07:42.556Z,42.03
2023-05-01T05:08:42.612Z,42.06
2023-05-01T05:09:42.670Z,42.08
2023-05-01T05:10:42.736Z,42.09
2023-05-01T05:11:42.825Z,42.08
2023-05-01T05:12:42.878Z,42.12
2023-05-01T05:13:42.954Z,42.14
2023-05-01T05:14:42.994Z,42.14
2023-05-01T05:15:43.040Z,42.20
2023-05-01T05:16:43.216Z,42.19
2023-05-01T05:17:43.139Z,42.15
2023-05-01T05:18:43.248Z,42.10
2023-05-01T05:19:43.284Z,42.08
2023-05-01T05:20:43.345Z,42.13
2023-05-01T05:21:43.410Z,42.25
2023-05-01T05:22:43.457Z,42.27
2023-05-01T05:23:43.561Z,42.27
2023-05-01T05:24:43.570Z,42.32
2023-05-01T05:25:43.624Z,42.38
2023-05-01T05:26:43.651Z,42.39
2023-05-01T05:27:43.731Z,42.39
2023-05-01T05:28:43.774Z,42.38
2023-05-01T05:29:43.786Z,42.43
2023-05-01T05:30:43.857Z,42.51
2023-05-01T05:31:44.026Z,42.53
2023-05-01T05:32:43.979Z,42.52
2023-05-01T05:33:43.993Z,42.43
2023-05-01T05:34:44.034Z,42.41
2023-05-01T05:35:44.074Z,42.37
2023-05-01T05:36:44.101Z,42.35
2023-05-01T05:37:46.035Z,42.34
2023-05-01T05:38:44.186Z,42.36
2023-05-01T05:39:44.241Z,42.39
2023-05-01T05:40:44.265Z,42.38
2023-05-01T05:41:44.316Z,42.33
2023-05-01T05:42:44.440Z,42.34
2023-05-01T05:43:44.392Z,42.34
2023-05-01T05:44:44.377Z,42.27
2023-05-01T05:45:44.477Z,42.26
2023-05-01T05:46:44.462Z,42.26
2023-05-01T05:47:44.502Z,42.28
2023-05-01T05:48:44.505Z,42.31
2023-05-01T05:49:44.559Z,42.25
2023-05-01T05:50:44.628Z,42.23
2023-05-01T05:51:44.646Z,42.18
2023-05-01T05:52:44.692Z,42.20
2023-05-01T05:53:44.700Z,42.22
2023-05-01T05:54:44.723Z,42.19
2023-05-01T05:55:44.797Z,42.17
2023-05-01T05:56:44.792Z,42.22
2023-05-01T05:57:44.889Z,42.19
2023-05-01T05:58:44.821Z,42.21
2023-05-01T05:59:45.022Z,42.19
2023-05-01T06:00:44.919Z,42.18
2023-05-01T06:01:44.933Z,42.22
2023-05-01T06:02:45.127Z,42.27
2023-05-01T06:03:45.048Z,42.27
2023-05-01T06:04:45.022Z,42.15
2023-05-01T06:05:45.155Z,42.10
2023-05-01T06:06:45.105Z,42.09
2023-05-01T06:07:45.103Z,42.10
2023-05-01T06:08:45.162Z,42.12
2023-05-01T06:09:45.185Z,42.15
2023-05-01T06:10:45.181Z,42.15
2023-05-01T06:11:45.260Z,42.11
2023-05-01T06:12:47.743Z,42.13
2023-05-01T06:13:46.293Z,42.18
2023-05-01T06:14:45.255Z,42.20
2023-05-01T06:15:45.310Z,42.18
2023-05-01T06:16:45.223Z,42.21
2023-05-01T06:17:45.237Z,42.30
2023-05-01T06:18:45.792Z,42.37
2023-05-01T06:19:45.216Z,42.41
2023-05-01T06:20:45.257Z,42.42
2023-05-01T06:21:45.217Z,42.42
2023-05-01T06:22:45.240Z,42.40
2023-05-01T06:23:45.732Z,42.36
2023-05-01T06:24:45.194Z,42.31
2023-05-01T06:25:45.151Z,42.30
2023-05-01T06:26:45.146Z,42.39
2023-05-01T06:27:45.164Z,42.36
2023-05-01T06:28:45.132Z,42.36
2023-05-01T06:29:45.206Z,42.30
2023-05-01T06:30:45.227Z,42.28
2023-05-01T06:31:45.271Z,42.27
2023-05-01T06:32:45.320Z,42.22
2023-05-01T06:33:45.279Z,42.25
2023-05-01T06:34:45.296Z,42.24
2023-05-01T06:35:45.312Z,42.18
2023-05-01T06:36:45.361Z,42.21
2023-05-01T06:37:45.380Z,42.21
2023-05-01T06:38:45.375Z,42.14
2023-05-01T06:39:45.437Z,42.10
2023-05-01T06:40:45.418Z,42.09
2023-05-01T06:41:45.456Z,42.20
2023-05-01T06:42:45.492Z,42.27
2023-05-01T06:43:45.502Z,42.28
2023-05-01T06:44:45.529Z,42.16
2023-05-01T06:45:45.536Z,42.15
2023-05-01T06:46:45.598Z,42.15
2023-05-01T06:47:45.604Z,42.17
2023-05-01T06:48:45.612Z,42.20
2023-05-01T06:49:45.627Z,42.21
2023-05-01T06:50:45.660Z,42.21
2023-05-01T06:51:45.657Z,42.19
2023-05-01T06:52:45.685Z,42.09
2023-05-01T06:53:45.669Z,42.03
2023-05-01T06:54:45.742Z,42.10
2023-05-01T06:55:45.726Z,42.13
2023-05-01T06:56:45.758Z,42.11
2023-05-01T06:57:45.757Z,42.04
2023-05-01T06:58:45.780Z,42.00
2023-05-01T06:59:45.783Z,41.99
2023-05-01T07:00:45.875Z,41.97
2023-05-01T07:01:45.880Z,41.97
2023-05-01T07:02:46.021Z,42.12
2023-05-01T07:03:45.859Z,42.05
2023-05-01T07:04:45.891Z,41.98
2023-05-01T07:05:45.884Z,41.93
2023-05-01T07:06:45.984Z,41.96
2023-05-01T07:07:54.113Z,41.91
2023-05-01T07:08:46.931Z,41.90
2023-05-01T07:09:45.896Z,41.85
2023-05-01T07:10:45.877Z,41.82
2023-05-01T07:11:45.883Z,41.82
2023-05-01T07:12:45.891Z,41.88
2023-05-01T07:13:45.864Z,41.85
2023-05-01T07:14:45.862Z,41.82
2023-05-01T07:15:45.879Z,41.78
2023-05-01T07:16:45.903Z,41.76
2023-05-01T07:17:45.869Z,41.85
2023-05-01T07:18:45.854Z,41.93
2023-05-01T07:19:45.838Z,41.96
2023-05-01T07:20:45.832Z,41.91
2023-05-01T07:21:45.837Z,41.97
2023-05-01T07:22:45.813Z,41.92
2023-05-01T07:23:45.815Z,41.86
2023-05-01T07:24:45.815Z,41.82
2023-05-01T07:25:45.771Z,41.81
2023-05-01T07:26:45.779Z,41.74
2023-05-01T07:27:45.791Z,41.69
2023-05-01T07:28:45.755Z,41.66
2023-05-01T07:29:45.785Z,41.66
2023-05-01T07:30:45.752Z,41.61
2023-05-01T07:31:45.778Z,41.52
2023-05-01T07:32:45.800Z,41.54
2023-05-01T07:33:45.760Z,41.57
2023-05-01T07:34:45.717Z,41.62
2023-05-01T07:35:45.748Z,41.59
2023-05-01T07:36:45.741Z,41.56
2023-05-01T07:37:45.738Z,41.58
2023-05-01T07:38:45.697Z,41.56
2023-05-01T07:39:45.760Z,41.54
2023-05-01T07:40:45.693Z,41.64
2023-05-01T07:41:45.657Z,41.75
2023-05-01T07:42:45.672Z,41.77
2023-05-01T07:43:45.663Z,41.66
2023-05-01T07:44:46.256Z,41.65
2023-05-01T07:45:45.725Z,41.68
2023-05-01T07:46:45.650Z,41.61
2023-05-01T07:47:45.630Z,41.54
2023-05-01T07:48:45.661Z,41.48
2023-05-01T07:49:45.621Z,41.42
2023-05-01T07:50:45.650Z,41.39
2023-05-01T07:51:45.718Z,41.40
2023-05-01T07:52:45.664Z,41.39
2023-05-01T07:53:45.646Z,41.42
2023-05-01T07:54:45.690Z,41.43
2023-05-01T07:55:45.686Z,41.42
2023-05-01T07:56:46.674Z,41.41
2023-05-01T07:57:45.722Z,41.37
2023-05-01T07:58:45.769Z,41.24
2023-05-01T07:59:45.791Z,41.28
2023-05-01T08:00:45.867Z,41.28
2023-05-01T08:01:45.892Z,41.19
2023-05-01T08:02:46.055Z,41.15
2023-05-01T08:03:48.106Z,41.04
2023-05-01T08:04:46.159Z,40.95
2023-05-01T08:05:46.104Z,40.95
2023-05-01T08:06:46.052Z,40.86
2023-05-01T08:07:46.047Z,40.97
2023-05-01T08:08:46.034Z,40.98
2023-05-01T08:09:45.995Z,40.95
2023-05-01T08:10:45.993Z,40.85
2023-05-01T08:11:45.953Z,40.83
2023-05-01T08:12:45.975Z,40.86
2023-05-01T08:13:45.991Z,40.84
2023-05-01T08:14:45.981Z,40.86
2023-05-01T08:15:46.054Z,40.86
2023-05-01T08:16:46.079Z,40.85
2023-05-01T08:17:45.974Z,40.81
2023-05-01T08:18:45.903Z,40.87
2023-05-01T08:19:45.925Z,40.87
2023-05-01T08:20:45.921Z,40.83
2023-05-01T08:21:45.919Z,40.76
2023-05-01T08:22:45.907Z,40.78
2023-05-01T08:23:45.893Z,40.81
2023-05-01T08:24:45.901Z,40.75
2023-05-01T08:25:45.891Z,40.78
2023-05-01T08:26:45.886Z,40.80
2023-05-01T08:27:45.902Z,40.73
2023-05-01T08:28:45.860Z,40.78
2023-05-01T08:29:45.879Z,40.74
2023-05-01T08:30:45.861Z,40.72
2023-05-01T08:31:45.949Z,40.55
2023-05-01T08:32:45.906Z,40.48
2023-05-01T08:33:45.875Z,40.56
2023-05-01T08:34:45.865Z,40.66
2023-05-01T08:35:45.910Z,40.74
2023-05-01T08:36:45.976Z,40.70
2023-05-01T08:37:46.080Z,40.62
2023-05-01T08:38:46.116Z,40.59
2023-05-01T08:39:46.174Z,40.55
2023-05-01T08:40:46.237Z,40.54
2023-05-01T08:41:46.305Z,40.58
2023-05-01T08:42:46.365Z,40.54
2023-05-01T08:43:46.405Z,40.49
2023-05-01T08:44:46.486Z,40.43
2023-05-01T08:45:46.499Z,40.41
2023-05-01T08:46:46.587Z,40.35
2023-05-01T08:47:46.627Z,40.34
2023-05-01T08:48:46.640Z,40.33
2023-05-01T08:49:46.703Z,40.37
2023-05-01T08:50:46.743Z,40.38
2023-05-01T08:51:46.833Z,40.34
2023-05-01T08:52:46.826Z,40.39
2023-05-01T08:53:46.868Z,40.34
2023-05-01T08:54:46.968Z,40.31
2023-05-01T08:55:46.990Z,40.27
2023-05-01T08:56:47.071Z,40.21
2023-05-01T08:57:47.093Z,40.14
2023-05-01T08:58:47.101Z,40.11
2023-05-01T08:59:47.145Z,40.08
2023-05-01T09:00:47.213Z,40.08
2023-05-01T09:01:47.320Z,40.10
2023-05-01T09:02:47.374Z,40.12
2023-05-01T09:03:47.356Z,40.15
2023-05-01T09:04:47.361Z,40.10
2023-05-01T09:05:47.452Z,40.11
2023-05-01T09:06:47.524Z,40.08
2023-05-01T09:07:47.480Z,40.08
2023-05-01T09:08:47.488Z,40.06
2023-05-01T09:09:47.558Z,40.11
2023-05-01T09:10:47.547Z,40.19
2023-05-01T09:11:47.585Z,40.18
2023-05-01T09:12:47.618Z,40.24
2023-05-01T09:13:47.661Z,40.17
2023-05-01T09:14:47.671Z,40.08
2023-05-01T09:15:47.708Z,40.18
2023-05-01T09:16:47.830Z,40.19
2023-05-01T09:17:47.833Z,40.23
2023-05-01T09:18:47.787Z,40.31
2023-05-01T09:19:47.804Z,40.31
2023-05-01T09:20:47.857Z,40.25
2023-05-01T09:21:47.859Z,40.20
2023-05-01T09:22:47.909Z,40.21
2023-05-01T09:23:47.920Z,40.14
2023-05-01T09:24:47.973Z,40.07
2023-05-01T09:25:49.094Z,40.15
2023-05-01T09:26:48.082Z,40.14
2023-05-01T09:27:47.963Z,40.14
2023-05-01T09:28:47.950Z,40.11
2023-05-01T09:29:47.994Z,40.15
2023-05-01T09:30:47.950Z,40.10
2023-05-01T09:31:48.036Z,40.10
2023-05-01T09:32:48.014Z,40.02
2023-05-01T09:33:47.939Z,40.01
2023-05-01T09:34:47.915Z,40.02
2023-05-01T09:35:47.952Z,39.99
2023-05-01T09:36:47.961Z,39.90
2023-05-01T09:37:48.083Z,39.93
2023-05-01T09:38:47.910Z,39.94
2023-05-01T09:39:47.871Z,39.99
2023-05-01T09:40:47.896Z,39.96
2023-05-01T09:41:47.909Z,39.95
2023-05-01T09:42:47.900Z,39.93
2023-05-01T09:43:47.858Z,39.93
2023-05-01T09:44:47.897Z,39.91
2023-05-01T09:45:47.839Z,39.95
2023-05-01T09:46:47.869Z,39.96
2023-05-01T09:47:47.886Z,39.92
2023-05-01T09:48:47.854Z,39.94
2023-05-01T09:49:47.837Z,39.94
2023-05-01T09:50:47.813Z,39.95
2023-05-01T09:51:47.785Z,39.98
2023-05-01T09:52:47.826Z,40.02
2023-05-01T09:53:47.801Z,40.05
2023-05-01T09:54:47.796Z,40.19
2023-05-01T09:55:47.776Z,40.20
2023-05-01T09:56:47.781Z,40.21
2023-05-01T09:57:47.776Z,40.28
2023-05-01T09:58:47.751Z,40.19
2023-05-01T09:59:47.761Z,40.19
2023-05-01T10:00:47.849Z,40.20
2023-05-01T10:01:47.868Z,40.17
2023-05-01T10:02:47.848Z,40.11
2023-05-01T10:03:47.784Z,40.05
2023-05-01T10:04:47.709Z,39.98
2023-05-01T10:05:47.694Z,39.99
2023-05-01T10:06:47.740Z,40.04
2023-05-01T10:07:47.678Z,40.17
2023-05-01T10:08:47.671Z,40.23
2023-05-01T10:09:47.714Z,40.16
2023-05-01T10:10:47.669Z,40.12
2023-05-01T10:11:47.662Z,40.10
2023-05-01T10:12:47.726Z,40.11
2023-05-01T10:13:47.646Z,40.12
2023-05-01T10:14:47.641Z,40.09
2023-05-01T10:15:47.665Z,40.06
2023-05-01T10:16:47.682Z,40.01
2023-05-01T10:17:47.635Z,40.06
2023-05-01T10:18:47.639Z,40.04
2023-05-01T10:19:47.606Z,40.05
2023-05-01T10:20:47.608Z,40.18
2023-05-01T10:21:47.597Z,40.16
2023-05-01T10:22:47.612Z,40.02
2023-05-01T10:23:47.601Z,40.02
2023-05-01T10:24:47.599Z,40.00
2023-05-01T10:25:47.553Z,40.02
2023-05-01T10:26:47.585Z,39.99
2023-05-01T10:27:47.541Z,39.93
2023-05-01T10:28:47.566Z,39.89
2023-05-01T10:29:47.553Z,39.91
2023-05-01T10:30:47.545Z,39.91
2023-05-01T10:31:47.567Z,39.93
2023-05-01T10:32:47.559Z,39.89
2023-05-01T10:33:47.501Z,39.85
2023-05-01T10:34:47.471Z,39.88
2023-05-01T10:35:47.500Z,39.85
2023-05-01T10:36:47.574Z,39.83
2023-05-01T10:37:47.481Z,39.80
2023-05-01T10:38:47.469Z,39.74
2023-05-01T10:39:47.437Z,39.65
2023-05-01T10:40:47.492Z,39.64
2023-05-01T10:41:47.448Z,39.59
2023-05-01T10:42:47.458Z,39.66
2023-05-01T10:43:47.431Z,39.72
2023-05-01T10:44:47.430Z,39.66
2023-05-01T10:45:47.441Z,39.54
2023-05-01T10:46:47.726Z,39.56
2023-05-01T10:47:47.614Z,39.60
2023-05-01T10:48:47.606Z,39.61
2023-05-01T10:49:47.667Z,39.55
2023-05-01T10:50:47.715Z,39.51
2023-05-01T10:51:47.765Z,39.49
2023-05-01T10:52:47.870Z,39.45
2023-05-01T10:53:47.883Z,39.44
2023-05-01T10:54:47.955Z,39.42
2023-05-01T10:55:48.028Z,39.33
2023-05-01T10:56:48.070Z,39.35
2023-05-01T10:57:48.099Z,39.29
2023-05-01T10:58:48.135Z,39.34
2023-05-01T10:59:48.188Z,39.31
2023-05-01T11:00:48.263Z,39.30
2023-05-01T11:01:48.356Z,39.26
2023-05-01T11:02:48.422Z,39.27
2023-05-01T11:03:48.458Z,39.18
2023-05-01T11:04:48.614Z,39.17
2023-05-01T11:05:48.622Z,39.15
2023-05-01T11:06:48.690Z,39.10
2023-05-01T11:07:48.669Z,39.03
2023-05-01T11:08:48.717Z,39.03
2023-05-01T11:09:48.797Z,38.99
2023-05-01T11:10:48.824Z,39.00
2023-05-01T11:11:48.882Z,39.02
2023-05-01T11:12:48.926Z,38.99
2023-05-01T11:13:48.980Z,39.00
2023-05-01T11:14:49.045Z,39.02
2023-05-01T11:15:49.097Z,39.06
2023-05-01T11:16:49.214Z,39.03
2023-05-01T11:17:49.197Z,39.08
2023-05-01T11:18:49.184Z,39.08
2023-05-01T11:19:49.295Z,39.04
2023-05-01T11:20:49.293Z,39.06
2023-05-01T11:21:49.345Z,39.05
2023-05-01T11:22:49.418Z,39.05
2023-05-01T11:23:49.500Z,39.05
2023-05-01T11:24:49.505Z,39.04
2023-05-01T11:25:49.540Z,39.02
2023-05-01T11:26:49.582Z,39.00
2023-05-01T11:27:49.616Z,38.95
2023-05-01T11:28:49.653Z,38.92
2023-05-01T11:29:49.693Z,38.83
2023-05-01T11:30:49.724Z,38.80
2023-05-01T11:31:49.818Z,38.77
2023-05-01T11:32:49.950Z,38.73
2023-05-01T11:33:49.874Z,38.73
2023-05-01T11:34:49.908Z,38.71
2023-05-01T11:35:49.944Z,38.72
2023-05-01T11:36:49.970Z,38.72
2023-05-01T11:37:50.030Z,38.85
2023-05-01T11:38:50.034Z,38.80
2023-05-01T11:39:50.102Z,38.80
2023-05-01T11:40:50.105Z,38.90
2023-05-01T11:41:50.164Z,38.91
2023-05-01T11:42:50.198Z,38.88
2023-05-01T11:43:50.223Z,38.88
2023-05-01T11:44:50.273Z,38.86
2023-05-01T11:45:50.284Z,38.77
2023-05-01T11:46:50.305Z,38.72
2023-05-01T11:47:50.391Z,38.68
2023-05-01T11:48:50.386Z,38.67
2023-05-01T11:49:50.408Z,38.60
2023-05-01T11:50:50.459Z,38.54
2023-05-01T11:51:50.481Z,38.49
2023-05-01T11:52:50.517Z,38.50
2023-05-01T11:53:50.521Z,38.48
2023-05-01T11:54:50.562Z,38.48
2023-05-01T11:55:50.575Z,38.44
2023-05-01T11:56:50.607Z,38.43
2023-05-01T11:57:50.646Z,38.43
2023-05-01T11:58:50.668Z,38.43
2023-05-01T11:59:50.702Z,38.43
2023-05-01T12:00:50.668Z,38.44
2023-05-01T12:01:50.719Z,38.42
2023-05-01T12:02:50.787Z,38.44
2023-05-01T12:03:50.849Z,38.41
2023-05-01T12:04:50.898Z,38.42
2023-05-01T12:05:50.810Z,38.37
2023-05-01T12:06:50.859Z,38.28
2023-05-01T12:07:50.891Z,38.24
2023-05-01T12:08:50.908Z,38.27
2023-05-01T12:09:50.959Z,38.25
2023-05-01T12:10:50.960Z,38.24
2023-05-01T12:11:52.382Z,38.22
2023-05-01T12:12:50.998Z,38.21
2023-05-01T12:13:51.059Z,38.21
2023-05-01T12:14:51.032Z,38.17
2023-05-01T12:15:51.052Z,38.16
2023-05-01T12:16:51.171Z,38.15
2023-05-01T12:17:51.134Z,38.12
2023-05-01T12:18:51.110Z,38.12
2023-05-01T12:19:51.157Z,38.09
2023-05-01T12:20:51.184Z,38.04
2023-05-01T12:21:51.145Z,37.98
2023-05-01T12:22:51.179Z,38.01
2023-05-01T12:23:51.170Z,37.95
2023-05-01T12:24:51.172Z,37.91
2023-05-01T12:25:51.203Z,37.98
2023-05-01T12:26:51.233Z,37.99
2023-05-01T12:27:51.238Z,37.96
2023-05-01T12:28:51.237Z,37.99
2023-05-01T12:29:51.219Z,38.03
2023-05-01T12:30:51.267Z,38.01
2023-05-01T12:31:51.325Z,38.00
2023-05-01T12:32:51.328Z,38.02
2023-05-01T12:33:51.253Z,37.99
2023-05-01T12:34:51.867Z,37.94
2023-05-01T12:35:51.295Z,37.90
2023-05-01T12:36:51.271Z,37.87
2023-05-01T12:37:51.259Z,37.89
2023-05-01T12:38:51.266Z,37.81
2023-05-01T12:39:51.260Z,37.81
2023-05-01T12:40:51.271Z,37.78
2023-05-01T12:41:51.272Z,37.80
2023-05-01T12:42:51.256Z,37.77
2023-05-01T12:43:51.270Z,37.71
2023-05-01T12:44:51.254Z,37.72
2023-05-01T12:45:51.246Z,37.72
2023-05-01T12:46:51.365Z,37.66
2023-05-01T12:47:51.368Z,37.63
2023-05-01T12:48:53.059Z,37.65
2023-05-01T12:49:51.261Z,37.64
2023-05-01T12:50:51.631Z,37.59
2023-05-01T12:51:51.280Z,37.58
2023-05-01T12:52:51.228Z,37.55